Monarch, Montana
Current Conditions -  °F | °C
As of 2:56 PM on Sunday 25 Jan 2015 (Local Time) from KGFA Reporting Station
Clear Clear  
Wind Chill: 57°   Ceiling: Unl
Heat Index: 57°   Visibility: 10mi
Dew Point: 32°   Wind: 26mph
Humidity: 39%   Direction: 230°SW
Pressure: 30.03"   Gusts: 35mph
Location:  47.1°N, 110.83°W
Report Text: KGFA 252156Z AUTO 23023G30KT 10SM CLR 14/00 A3003 RMK AO2 PK WND 23029/18 SLP180 T01371001
Loading
Personal Weather Stations






























Interactive Weather Map New forecast layout! Learn more

10-Day Weather Forecast

Advertisements
Track Severe Weather on mobile